createdAt,value
2022-12-31T00:01:26.463Z,11.68
2022-12-31T00:03:53.535Z,11.65
2022-12-31T00:06:31.831Z,11.69
2022-12-31T00:09:01.977Z,11.69
2022-12-31T00:11:30.350Z,11.64
2022-12-31T00:13:58.242Z,11.75
2022-12-31T00:16:28.164Z,11.65
2022-12-31T00:18:59.279Z,11.67
2022-12-31T00:21:27.911Z,11.76
2022-12-31T00:23:55.321Z,11.68
2022-12-31T00:26:26.941Z,11.76
2022-12-31T00:28:55.498Z,11.82
2022-12-31T00:31:25.012Z,11.80
2022-12-31T00:33:52.267Z,11.79
2022-12-31T00:36:33.610Z,11.76
2022-12-31T00:39:01.761Z,11.79
2022-12-31T00:41:29.480Z,11.66
2022-12-31T00:43:57.456Z,11.75
2022-12-31T00:46:25.257Z,11.72
2022-12-31T00:48:52.508Z,11.72
2022-12-31T00:51:21.991Z,11.70
2022-12-31T00:53:49.168Z,11.75
2022-12-31T00:56:22.004Z,11.73
2022-12-31T00:58:49.114Z,11.66
2022-12-31T01:01:20.985Z,11.66
2022-12-31T01:03:50.382Z,11.64
2022-12-31T01:06:21.081Z,11.72
2022-12-31T01:08:49.476Z,11.65
2022-12-31T01:11:19.434Z,11.70
2022-12-31T01:13:47.734Z,11.74
2022-12-31T01:16:15.027Z,11.66
2022-12-31T01:18:42.229Z,11.76
2022-12-31T01:21:11.064Z,11.64
2022-12-31T01:23:37.989Z,11.71
2022-12-31T01:26:07.440Z,11.67
2022-12-31T01:28:34.785Z,11.69
2022-12-31T01:31:10.222Z,11.67
2022-12-31T01:33:37.454Z,11.62
2022-12-31T01:36:23.577Z,11.61
2022-12-31T01:38:53.564Z,11.70
2022-12-31T01:41:23.289Z,11.67
2022-12-31T01:43:54.376Z,11.72
2022-12-31T01:46:33.829Z,11.76
2022-12-31T01:49:06.609Z,11.77
2022-12-31T01:51:35.238Z,11.72
2022-12-31T01:54:05.154Z,11.79
2022-12-31T01:56:33.556Z,11.81
2022-12-31T01:59:00.781Z,11.80
2022-12-31T02:01:33.048Z,11.78
2022-12-31T02:04:06.961Z,11.78
2022-12-31T02:06:42.973Z,11.74
2022-12-31T02:09:11.323Z,11.74
2022-12-31T02:11:38.304Z,11.75
2022-12-31T02:14:15.163Z,11.79
2022-12-31T02:16:56.915Z,11.80
2022-12-31T02:20:02.286Z,11.75
2022-12-31T02:22:28.923Z,11.77
2022-12-31T02:25:21.104Z,11.74
2022-12-31T02:28:12.092Z,11.72
2022-12-31T02:30:42.304Z,11.76
2022-12-31T02:33:28.847Z,11.81
2022-12-31T02:36:11.600Z,11.71
2022-12-31T02:38:46.019Z,11.61
2022-12-31T02:41:34.308Z,11.65
2022-12-31T02:44:01.087Z,11.56
2022-12-31T02:46:49.314Z,11.62
2022-12-31T02:49:28.437Z,11.72
2022-12-31T02:52:03.079Z,11.64
2022-12-31T02:54:40.431Z,11.57
2022-12-31T02:57:30.873Z,11.55
2022-12-31T03:00:25.369Z,11.56
2022-12-31T03:02:54.024Z,11.58
2022-12-31T03:05:24.986Z,11.72
2022-12-31T03:07:51.776Z,11.69
2022-12-31T03:10:18.514Z,11.60
2022-12-31T03:12:48.803Z,11.50
2022-12-31T03:15:30.666Z,11.59
2022-12-31T03:18:05.844Z,11.52
2022-12-31T03:20:57.263Z,11.55
2022-12-31T03:23:30.075Z,11.58
2022-12-31T03:25:58.551Z,11.67
2022-12-31T03:28:28.071Z,11.58
2022-12-31T03:30:58.340Z,11.63
2022-12-31T03:33:26.029Z,11.54
2022-12-31T03:35:53.779Z,11.57
2022-12-31T03:38:20.750Z,11.60
2022-12-31T03:40:52.960Z,11.60
2022-12-31T03:43:20.449Z,11.59
2022-12-31T03:45:51.895Z,11.61
2022-12-31T03:48:19.590Z,11.50
2022-12-31T03:50:46.309Z,11.61
2022-12-31T03:53:13.631Z,11.72
2022-12-31T03:55:40.584Z,11.73
2022-12-31T03:58:07.406Z,11.60
2022-12-31T04:00:34.468Z,11.64
2022-12-31T04:03:01.488Z,11.66
2022-12-31T04:05:28.431Z,11.55
2022-12-31T04:07:55.921Z,11.49
2022-12-31T04:10:22.894Z,11.52
2022-12-31T04:12:49.895Z,11.57
2022-12-31T04:15:19.714Z,11.46
2022-12-31T04:17:47.305Z,11.49
2022-12-31T04:20:15.872Z,11.42
2022-12-31T04:22:44.149Z,11.44
2022-12-31T04:25:11.745Z,11.39
2022-12-31T04:27:45.749Z,11.42
2022-12-31T04:30:14.080Z,11.39
2022-12-31T04:32:41.903Z,11.48
2022-12-31T04:35:11.150Z,11.51
2022-12-31T04:37:38.423Z,11.49
2022-12-31T04:40:07.172Z,11.45
2022-12-31T04:42:35.011Z,11.42
2022-12-31T04:45:01.730Z,11.44
2022-12-31T04:47:28.629Z,11.42
2022-12-31T04:49:55.299Z,11.44
2022-12-31T04:52:22.739Z,11.46
2022-12-31T04:54:49.731Z,11.44
2022-12-31T04:57:16.567Z,11.41
2022-12-31T04:59:43.305Z,11.45
2022-12-31T05:02:10.141Z,11.51
2022-12-31T05:04:37.028Z,11.50
2022-12-31T05:07:03.925Z,11.49
2022-12-31T05:09:31.118Z,11.54
2022-12-31T05:11:58.053Z,11.62
2022-12-31T05:14:25.040Z,11.68
2022-12-31T05:16:52.508Z,11.52
2022-12-31T05:19:19.384Z,11.55
2022-12-31T05:22:06.002Z,11.51
2022-12-31T05:24:32.743Z,11.47
2022-12-31T05:26:59.988Z,11.40
2022-12-31T05:29:26.752Z,11.46
2022-12-31T05:31:53.538Z,11.53
2022-12-31T05:34:20.525Z,11.54
2022-12-31T05:36:47.234Z,11.58
2022-12-31T05:39:14.163Z,11.54
2022-12-31T05:41:40.876Z,11.49
2022-12-31T05:44:07.629Z,11.55
2022-12-31T05:46:34.358Z,11.61
2022-12-31T05:49:01.230Z,11.58
2022-12-31T05:51:27.901Z,11.59
2022-12-31T05:53:54.636Z,11.51
2022-12-31T05:56:21.395Z,11.45
2022-12-31T05:58:48.088Z,11.49
2022-12-31T06:01:14.980Z,11.58
2022-12-31T06:03:41.913Z,11.46
2022-12-31T06:06:08.654Z,11.62
2022-12-31T06:08:35.296Z,11.65
2022-12-31T06:11:02.062Z,11.54
2022-12-31T06:13:29.123Z,11.48
2022-12-31T06:15:55.857Z,11.60
2022-12-31T06:18:22.620Z,11.51
2022-12-31T06:20:49.369Z,11.55
2022-12-31T06:23:16.092Z,11.53
2022-12-31T06:25:42.863Z,11.42
2022-12-31T06:28:12.174Z,11.50
2022-12-31T06:30:44.698Z,11.60
2022-12-31T06:33:11.396Z,11.55
2022-12-31T06:35:38.099Z,11.57
2022-12-31T06:38:04.793Z,11.54
2022-12-31T06:40:31.597Z,11.57
2022-12-31T06:43:00.336Z,11.70
2022-12-31T06:45:27.539Z,11.61
2022-12-31T06:47:54.241Z,11.59
2022-12-31T06:50:20.967Z,11.55
2022-12-31T06:52:47.827Z,11.62
2022-12-31T06:55:15.051Z,11.70
2022-12-31T06:57:42.198Z,11.65
2022-12-31T07:00:10.808Z,11.61
2022-12-31T07:03:16.109Z,11.43
2022-12-31T07:05:50.960Z,11.51
2022-12-31T07:08:54.943Z,11.61
2022-12-31T07:11:39.108Z,11.58
2022-12-31T07:14:11.898Z,11.61
2022-12-31T07:16:51.982Z,11.69
2022-12-31T07:19:35.817Z,11.73
2022-12-31T07:22:02.942Z,11.69
2022-12-31T07:24:30.001Z,11.72
2022-12-31T07:27:11.878Z,11.82
2022-12-31T07:30:02.919Z,11.83
2022-12-31T07:32:58.777Z,11.84
2022-12-31T07:35:35.384Z,11.81
2022-12-31T07:38:24.291Z,11.85
2022-12-31T07:41:10.368Z,11.77
2022-12-31T07:43:37.322Z,11.65
2022-12-31T07:46:07.089Z,11.77
2022-12-31T07:48:34.060Z,11.72
2022-12-31T07:51:01.272Z,11.83
2022-12-31T07:53:28.485Z,11.74
2022-12-31T07:56:03.802Z,11.82
2022-12-31T07:58:45.617Z,11.92
2022-12-31T08:01:14.517Z,11.90
2022-12-31T08:03:59.767Z,11.88
2022-12-31T08:06:29.546Z,11.86
2022-12-31T08:08:59.676Z,11.87
2022-12-31T08:11:38.252Z,11.90
2022-12-31T08:14:10.189Z,11.96
2022-12-31T08:16:37.344Z,11.81
2022-12-31T08:19:04.659Z,11.88
2022-12-31T08:21:37.487Z,11.79
2022-12-31T08:24:47.034Z,11.82
2022-12-31T08:27:38.699Z,11.83
2022-12-31T08:30:09.960Z,11.82
2022-12-31T08:32:55.007Z,11.78
2022-12-31T08:35:27.693Z,11.76
2022-12-31T08:38:06.523Z,11.79
2022-12-31T08:40:39.519Z,11.82
2022-12-31T08:43:32.837Z,11.90
2022-12-31T08:46:00.422Z,11.80
2022-12-31T08:48:42.064Z,11.81
2022-12-31T08:51:15.179Z,11.65
2022-12-31T08:53:42.166Z,11.76
2022-12-31T08:56:21.638Z,11.73
2022-12-31T08:59:21.895Z,11.70
2022-12-31T09:01:54.752Z,11.76
2022-12-31T09:04:59.851Z,11.71
2022-12-31T09:07:45.630Z,11.70
2022-12-31T09:10:23.688Z,11.71
2022-12-31T09:13:02.626Z,11.69
2022-12-31T09:15:46.503Z,11.63
2022-12-31T09:18:13.709Z,11.67
2022-12-31T09:20:43.866Z,11.71
2022-12-31T09:23:12.538Z,11.77
2022-12-31T09:25:46.957Z,11.79
2022-12-31T09:28:19.721Z,11.75
2022-12-31T09:30:55.479Z,11.77
2022-12-31T09:33:51.311Z,11.75
2022-12-31T09:36:30.455Z,11.69
2022-12-31T09:39:09.672Z,11.66
2022-12-31T09:42:10.629Z,11.78
2022-12-31T09:45:05.140Z,11.73
2022-12-31T09:47:53.929Z,11.66
2022-12-31T09:50:46.435Z,11.68
2022-12-31T09:53:22.346Z,11.65
2022-12-31T09:55:54.990Z,11.68
2022-12-31T09:58:40.264Z,11.64
2022-12-31T10:01:28.231Z,11.61
2022-12-31T10:04:07.166Z,11.55
2022-12-31T10:06:55.520Z,11.49
2022-12-31T10:09:53.260Z,11.51
2022-12-31T10:12:57.276Z,11.63
2022-12-31T10:15:36.022Z,11.66
2022-12-31T10:18:41.036Z,11.68
2022-12-31T10:21:40.062Z,11.69
2022-12-31T10:24:45.701Z,11.55
2022-12-31T10:27:18.303Z,11.59
2022-12-31T10:30:13.153Z,11.68
2022-12-31T10:32:45.012Z,11.59
2022-12-31T10:35:15.130Z,11.65
2022-12-31T10:38:04.797Z,11.66
2022-12-31T10:41:28.153Z,11.57
2022-12-31T10:44:15.988Z,11.57
2022-12-31T10:46:42.585Z,11.58
2022-12-31T10:49:09.242Z,11.58
2022-12-31T10:51:48.106Z,11.56
2022-12-31T10:54:30.009Z,11.54
2022-12-31T10:57:22.881Z,11.54
2022-12-31T11:00:27.554Z,11.47
2022-12-31T11:03:29.796Z,11.52
2022-12-31T11:06:11.725Z,11.45
2022-12-31T11:09:13.993Z,11.38
2022-12-31T11:11:52.849Z,11.27
2022-12-31T11:14:50.582Z,11.26
2022-12-31T11:17:41.647Z,11.10
2022-12-31T11:20:17.427Z,11.18
2022-12-31T11:22:57.376Z,11.10
2022-12-31T11:26:08.466Z,11.09
2022-12-31T11:28:41.562Z,11.09
2022-12-31T11:31:14.246Z,11.10
2022-12-31T11:34:03.895Z,11.14
2022-12-31T11:36:51.812Z,11.24
2022-12-31T11:39:46.188Z,11.14
2022-12-31T11:42:44.093Z,11.12
2022-12-31T11:45:10.667Z,11.04
2022-12-31T11:48:20.201Z,11.02
2022-12-31T11:50:46.799Z,11.07
2022-12-31T11:53:39.701Z,11.22
2022-12-31T11:56:24.824Z,11.21
2022-12-31T11:58:53.838Z,11.20
2022-12-31T12:01:27.472Z,11.22
2022-12-31T12:03:54.272Z,11.15
2022-12-31T12:06:27.602Z,11.17
2022-12-31T12:09:04.533Z,11.28
2022-12-31T12:11:35.484Z,11.32
2022-12-31T12:14:19.430Z,11.34
2022-12-31T12:16:46.494Z,11.45
2022-12-31T12:19:19.427Z,11.52
2022-12-31T12:21:48.655Z,11.79
2022-12-31T12:24:25.003Z,11.96
2022-12-31T12:26:51.995Z,11.89
2022-12-31T12:29:26.378Z,11.91
2022-12-31T12:32:06.051Z,11.96
2022-12-31T12:34:39.458Z,12.09
2022-12-31T12:37:33.107Z,12.15
2022-12-31T12:40:19.463Z,12.26
2022-12-31T12:42:48.594Z,12.41
2022-12-31T12:45:19.693Z,12.48
2022-12-31T12:47:49.143Z,12.59
2022-12-31T12:50:23.416Z,12.71
2022-12-31T12:53:16.488Z,12.77
2022-12-31T12:55:53.695Z,12.86
2022-12-31T12:58:33.403Z,12.87
2022-12-31T13:01:34.995Z,12.97
2022-12-31T13:07:25.162Z,13.02
2022-12-31T13:10:12.684Z,13.10
2022-12-31T13:13:22.906Z,13.11
2022-12-31T13:15:48.764Z,13.17
2022-12-31T13:18:49.902Z,13.11
2022-12-31T13:21:19.631Z,13.08
2022-12-31T13:24:07.840Z,13.04
2022-12-31T13:26:52.680Z,13.14
2022-12-31T13:29:24.138Z,13.23
2022-12-31T13:31:52.812Z,13.28
2022-12-31T13:34:26.264Z,13.26
2022-12-31T13:36:58.175Z,13.37
2022-12-31T13:39:31.399Z,13.41
2022-12-31T13:42:14.691Z,13.41
2022-12-31T13:44:51.815Z,13.47
2022-12-31T13:47:29.705Z,13.51
2022-12-31T13:50:02.469Z,13.51
2022-12-31T13:52:41.322Z,13.49
2022-12-31T13:55:32.362Z,13.47
2022-12-31T13:58:16.382Z,13.49
2022-12-31T14:01:21.767Z,13.51
2022-12-31T14:04:02.548Z,13.44
2022-12-31T14:06:36.434Z,13.56
2022-12-31T14:09:04.716Z,13.48
2022-12-31T14:11:49.778Z,13.47
2022-12-31T14:14:25.771Z,13.47
2022-12-31T14:16:55.902Z,13.47
2022-12-31T14:19:47.087Z,13.51
2022-12-31T14:22:45.586Z,13.52
2022-12-31T14:25:25.685Z,13.57
2022-12-31T14:27:55.137Z,13.58
2022-12-31T14:30:25.109Z,13.65
2022-12-31T14:33:17.341Z,13.65
2022-12-31T14:36:00.432Z,13.72
2022-12-31T14:38:39.608Z,13.73
2022-12-31T14:41:19.943Z,13.75
2022-12-31T14:44:03.779Z,13.80
2022-12-31T14:47:11.580Z,13.83
2022-12-31T14:50:03.145Z,13.81
2022-12-31T14:52:35.670Z,13.80
2022-12-31T14:55:23.402Z,13.91
2022-12-31T15:00:40.229Z,13.90
2022-12-31T15:03:23.798Z,13.90
2022-12-31T15:05:54.249Z,13.91
2022-12-31T15:08:49.250Z,13.91
2022-12-31T15:11:28.062Z,13.92
2022-12-31T15:14:00.685Z,13.94
2022-12-31T15:16:27.355Z,13.97
2022-12-31T15:19:30.561Z,13.96
2022-12-31T15:22:03.236Z,14.07
2022-12-31T15:24:30.885Z,14.11
2022-12-31T15:27:06.828Z,14.10
2022-12-31T15:29:36.964Z,14.06
2022-12-31T15:32:07.817Z,14.12
2022-12-31T15:34:36.640Z,14.15
2022-12-31T15:37:35.882Z,14.08
2022-12-31T15:40:20.890Z,14.13
2022-12-31T15:42:55.556Z,14.07
2022-12-31T15:45:37.424Z,14.12
2022-12-31T15:48:19.787Z,14.10
2022-12-31T15:50:47.527Z,14.10
2022-12-31T15:53:34.870Z,14.11
2022-12-31T15:56:02.571Z,14.13
2022-12-31T15:58:37.761Z,14.04
2022-12-31T16:01:24.206Z,14.03
2022-12-31T16:03:57.992Z,14.01
2022-12-31T16:06:28.377Z,13.92
2022-12-31T16:08:55.751Z,13.92
2022-12-31T16:11:23.522Z,13.91
2022-12-31T16:13:54.111Z,13.86
2022-12-31T16:16:20.862Z,13.84
2022-12-31T16:18:50.135Z,13.80
2022-12-31T16:21:27.895Z,13.78
2022-12-31T16:24:01.406Z,13.78
2022-12-31T16:26:33.155Z,13.69
2022-12-31T16:29:00.814Z,13.71
2022-12-31T16:31:29.908Z,13.73
2022-12-31T16:34:36.455Z,13.73
2022-12-31T16:37:06.309Z,13.68
2022-12-31T16:40:09.928Z,13.62
2022-12-31T16:42:44.136Z,13.51
2022-12-31T16:45:29.890Z,13.45
2022-12-31T16:47:59.133Z,13.42
2022-12-31T16:50:26.457Z,13.42
2022-12-31T16:53:04.639Z,13.35
2022-12-31T16:55:33.226Z,13.32
2022-12-31T16:58:06.923Z,13.31
2022-12-31T17:00:34.911Z,13.27
2022-12-31T17:03:27.499Z,13.18
2022-12-31T17:06:06.508Z,13.20
2022-12-31T17:08:54.768Z,13.11
2022-12-31T17:11:31.421Z,13.13
2022-12-31T17:14:07.288Z,13.12
2022-12-31T17:16:36.435Z,13.15
2022-12-31T17:19:04.744Z,13.03
2022-12-31T17:21:32.445Z,13.04
2022-12-31T17:24:06.175Z,13.06
2022-12-31T17:26:37.415Z,13.07
2022-12-31T17:29:06.070Z,13.04
2022-12-31T17:31:34.411Z,13.03
2022-12-31T17:34:17.383Z,13.01
2022-12-31T17:36:53.482Z,13.00
2022-12-31T17:39:23.478Z,12.95
2022-12-31T17:41:52.741Z,12.95
2022-12-31T17:44:40.070Z,12.99
2022-12-31T17:47:11.770Z,12.99
2022-12-31T17:49:38.587Z,12.97
2022-12-31T17:52:11.937Z,12.97
2022-12-31T17:54:38.874Z,12.99
2022-12-31T17:57:06.484Z,12.89
2022-12-31T17:59:35.247Z,12.90
2022-12-31T18:02:03.734Z,12.85
2022-12-31T18:04:30.492Z,12.83
2022-12-31T18:06:57.332Z,12.85
2022-12-31T18:09:24.027Z,12.75
2022-12-31T18:11:50.738Z,12.79
2022-12-31T18:14:17.415Z,12.74
2022-12-31T18:16:44.477Z,12.83
2022-12-31T18:19:37.971Z,12.74
2022-12-31T18:22:01.247Z,12.73
2022-12-31T18:24:28.005Z,12.70
2022-12-31T18:26:55.271Z,12.70
2022-12-31T18:29:22.644Z,12.67
2022-12-31T18:31:50.260Z,12.73
2022-12-31T18:34:18.632Z,12.64
2022-12-31T18:36:46.554Z,12.71
2022-12-31T18:39:13.295Z,12.64
2022-12-31T18:41:49.029Z,12.65
2022-12-31T18:44:17.342Z,12.65
2022-12-31T18:46:44.272Z,12.60
2022-12-31T18:49:11.174Z,12.60
2022-12-31T18:51:37.970Z,12.58
2022-12-31T18:54:05.214Z,12.60
2022-12-31T18:56:32.111Z,12.73
2022-12-31T18:58:59.910Z,12.65
2022-12-31T19:01:30.422Z,12.67
2022-12-31T19:04:26.524Z,12.60
2022-12-31T19:06:54.347Z,12.58
2022-12-31T19:09:43.941Z,12.63
2022-12-31T19:12:12.984Z,12.56
2022-12-31T19:14:39.772Z,12.58
2022-12-31T19:19:32.103Z,12.49
2022-12-31T19:21:59.042Z,12.48
2022-12-31T19:24:27.434Z,12.46
2022-12-31T19:26:55.156Z,12.48
2022-12-31T19:29:28.827Z,12.49
2022-12-31T19:31:55.680Z,12.53
2022-12-31T19:34:22.532Z,12.53
2022-12-31T19:36:49.388Z,12.53
2022-12-31T19:39:19.224Z,12.48
2022-12-31T19:41:48.228Z,12.52
2022-12-31T19:44:19.098Z,12.46
2022-12-31T19:46:47.305Z,12.46
2022-12-31T19:49:14.810Z,12.38
2022-12-31T19:51:42.945Z,12.38
2022-12-31T19:54:12.570Z,12.39
2022-12-31T19:56:41.640Z,12.38
2022-12-31T19:59:10.712Z,12.35
2022-12-31T20:01:37.979Z,12.37
2022-12-31T20:04:05.295Z,12.41
2022-12-31T20:06:32.445Z,12.53
2022-12-31T20:08:59.403Z,12.50
2022-12-31T20:11:26.511Z,12.49
2022-12-31T20:13:54.088Z,12.42
2022-12-31T20:16:24.702Z,12.50
2022-12-31T20:18:51.622Z,12.46
2022-12-31T20:21:21.134Z,12.48
2022-12-31T20:23:49.853Z,12.49
2022-12-31T20:26:18.093Z,12.50
2022-12-31T20:28:45.385Z,12.49
2022-12-31T20:31:24.451Z,12.48
2022-12-31T20:33:51.305Z,12.46
2022-12-31T20:36:18.264Z,12.50
2022-12-31T20:38:45.938Z,12.57
2022-12-31T20:41:15.631Z,12.62
2022-12-31T20:43:43.476Z,12.58
2022-12-31T20:46:18.122Z,12.74
2022-12-31T20:48:49.321Z,12.77
2022-12-31T20:51:17.671Z,12.66
2022-12-31T20:53:49.836Z,12.68
2022-12-31T20:56:17.558Z,12.69
2022-12-31T20:58:44.952Z,12.68
2022-12-31T21:01:12.640Z,12.70
2022-12-31T21:06:29.870Z,12.85
2022-12-31T21:08:58.499Z,12.80
2022-12-31T21:11:44.476Z,12.85
2022-12-31T21:14:11.313Z,12.90
2022-12-31T21:16:38.148Z,12.88
2022-12-31T21:19:05.532Z,12.95
2022-12-31T21:21:32.466Z,13.09
2022-12-31T21:24:00.085Z,13.16
2022-12-31T21:26:27.960Z,13.18
2022-12-31T21:28:54.744Z,13.12
2022-12-31T21:31:21.426Z,13.12
2022-12-31T21:33:48.681Z,13.17
2022-12-31T21:36:16.022Z,13.08
2022-12-31T21:38:44.763Z,13.11
2022-12-31T21:41:34.011Z,13.13
2022-12-31T21:44:01.532Z,13.16
2022-12-31T21:46:28.918Z,13.16
2022-12-31T21:48:58.094Z,13.17
2022-12-31T21:51:25.292Z,13.18
2022-12-31T21:53:52.524Z,13.18
2022-12-31T21:56:21.325Z,13.17
2022-12-31T21:59:13.694Z,13.25
2022-12-31T22:01:59.578Z,13.30
2022-12-31T22:07:13.067Z,13.25
2022-12-31T22:09:39.920Z,13.33
2022-12-31T22:12:06.926Z,13.27
2022-12-31T22:14:33.970Z,13.30
2022-12-31T22:17:00.829Z,13.37
2022-12-31T22:19:27.544Z,13.30
2022-12-31T22:21:54.242Z,13.33
2022-12-31T22:24:20.993Z,13.41
2022-12-31T22:26:47.780Z,13.32
2022-12-31T22:29:14.773Z,13.34
2022-12-31T22:31:41.733Z,13.23
2022-12-31T22:34:08.662Z,13.27
2022-12-31T22:36:35.438Z,13.39
2022-12-31T22:39:02.334Z,13.29
2022-12-31T22:41:29.285Z,13.30
2022-12-31T22:44:03.665Z,13.32
2022-12-31T22:46:31.946Z,13.36
2022-12-31T22:49:00.700Z,13.42
2022-12-31T22:51:54.841Z,13.32
2022-12-31T22:54:15.267Z,13.35
2022-12-31T22:56:42.167Z,13.31
2022-12-31T22:59:09.370Z,13.42
2022-12-31T23:01:36.632Z,13.37
2022-12-31T23:04:04.379Z,13.34
2022-12-31T23:06:31.251Z,13.47
2022-12-31T23:09:17.140Z,13.47
2022-12-31T23:11:46.436Z,13.60
2022-12-31T23:14:35.693Z,13.51
2022-12-31T23:17:29.899Z,13.52
2022-12-31T23:20:18.353Z,13.55
2022-12-31T23:23:05.242Z,13.70
2022-12-31T23:25:33.853Z,13.70
2022-12-31T23:28:01.323Z,13.70
2022-12-31T23:30:28.435Z,13.73
2022-12-31T23:32:55.355Z,13.73
2022-12-31T23:35:22.297Z,13.95
2022-12-31T23:37:49.029Z,13.85
2022-12-31T23:40:21.128Z,13.97
2022-12-31T23:42:49.744Z,13.96
2022-12-31T23:45:16.844Z,13.89
2022-12-31T23:47:43.587Z,14.01
2022-12-31T23:50:10.349Z,14.03
2022-12-31T23:52:37.126Z,13.90
2022-12-31T23:55:04.467Z,13.81
2022-12-31T23:57:31.455Z,13.81
2022-12-31T23:59:58.180Z,13.76
